sensor_id;sensor_type;location;lat;lon;timestamp;temperature;humidity
4960;DHT22;2495;48.200;11.532;2023-05-07T00:01:25;17.30;82.70
4960;DHT22;2495;48.200;11.532;2023-05-07T00:06:26;17.20;83.00
4960;DHT22;2495;48.200;11.532;2023-05-07T00:11:28;17.00;83.30
4960;DHT22;2495;48.200;11.532;2023-05-07T00:16:29;16.90;83.70
4960;DHT22;2495;48.200;11.532;2023-05-07T00:21:30;16.90;83.80
4960;DHT22;2495;48.200;11.532;2023-05-07T00:26:32;16.90;85.80
4960;DHT22;2495;48.200;11.532;2023-05-07T00:31:33;17.10;84.60
4960;DHT22;2495;48.200;11.532;2023-05-07T00:36:34;17.10;86.20
4960;DHT22;2495;48.200;11.532;2023-05-07T00:41:35;17.10;84.70
4960;DHT22;2495;48.200;11.532;2023-05-07T00:46:37;17.10;86.30
4960;DHT22;2495;48.200;11.532;2023-05-07T00:51:38;17.20;84.70
4960;DHT22;2495;48.200;11.532;2023-05-07T00:56:39;17.00;84.50
4960;DHT22;2495;48.200;11.532;2023-05-07T01:01:41;16.90;84.50
4960;DHT22;2495;48.200;11.532;2023-05-07T01:06:42;16.70;84.30
4960;DHT22;2495;48.200;11.532;2023-05-07T01:11:44;16.60;84.40
4960;DHT22;2495;48.200;11.532;2023-05-07T01:16:47;16.60;84.30
4960;DHT22;2495;48.200;11.532;2023-05-07T01:21:48;16.60;84.80
4960;DHT22;2495;48.200;11.532;2023-05-07T01:26:49;16.60;86.30
4960;DHT22;2495;48.200;11.532;2023-05-07T01:31:50;16.70;85.20
4960;DHT22;2495;48.200;11.532;2023-05-07T01:36:53;16.70;84.60
4960;DHT22;2495;48.200;11.532;2023-05-07T01:41:54;16.60;84.90
4960;DHT22;2495;48.200;11.532;2023-05-07T01:46:55;16.70;87.00
4960;DHT22;2495;48.200;11.532;2023-05-07T01:51:56;16.70;85.50
4960;DHT22;2495;48.200;11.532;2023-05-07T01:56:57;16.80;86.90
4960;DHT22;2495;48.200;11.532;2023-05-07T02:01:59;16.90;87.90
4960;DHT22;2495;48.200;11.532;2023-05-07T02:07:00;17.00;86.20
4960;DHT22;2495;48.200;11.532;2023-05-07T02:12:01;16.80;85.30
4960;DHT22;2495;48.200;11.532;2023-05-07T02:17:03;16.70;85.00
4960;DHT22;2495;48.200;11.532;2023-05-07T02:22:05;16.60;85.10
4960;DHT22;2495;48.200;11.532;2023-05-07T02:27:06;16.50;85.30
4960;DHT22;2495;48.200;11.532;2023-05-07T02:32:07;16.60;87.20
4960;DHT22;2495;48.200;11.532;2023-05-07T02:37:09;16.80;87.60
4960;DHT22;2495;48.200;11.532;2023-05-07T02:42:10;16.80;86.20
4960;DHT22;2495;48.200;11.532;2023-05-07T02:47:13;16.70;85.30
4960;DHT22;2495;48.200;11.532;2023-05-07T02:52:15;16.50;85.50
4960;DHT22;2495;48.200;11.532;2023-05-07T02:57:17;16.50;87.10
4960;DHT22;2495;48.200;11.532;2023-05-07T03:02:19;16.50;86.10
4960;DHT22;2495;48.200;11.532;2023-05-07T03:07:20;16.40;85.50
4960;DHT22;2495;48.200;11.532;2023-05-07T03:12:21;16.40;87.60
4960;DHT22;2495;48.200;11.532;2023-05-07T03:17:23;16.40;86.20
4960;DHT22;2495;48.200;11.532;2023-05-07T03:22:24;16.30;86.00
4960;DHT22;2495;48.200;11.532;2023-05-07T03:27:26;16.10;85.90
4960;DHT22;2495;48.200;11.532;2023-05-07T03:32:27;16.10;87.90
4960;DHT22;2495;48.200;11.532;2023-05-07T03:37:29;16.10;86.50
4960;DHT22;2495;48.200;11.532;2023-05-07T03:42:30;16.00;86.20
4960;DHT22;2495;48.200;11.532;2023-05-07T03:47:31;15.80;86.40
4960;DHT22;2495;48.200;11.532;2023-05-07T03:52:33;15.70;86.50
4960;DHT22;2495;48.200;11.532;2023-05-07T03:57:35;15.70;86.40
4960;DHT22;2495;48.200;11.532;2023-05-07T04:02:36;15.70;88.70
4960;DHT22;2495;48.200;11.532;2023-05-07T04:07:38;15.80;87.30
4960;DHT22;2495;48.200;11.532;2023-05-07T04:12:39;15.70;86.80
4960;DHT22;2495;48.200;11.532;2023-05-07T04:17:41;15.60;86.80
4960;DHT22;2495;48.200;11.532;2023-05-07T04:22:42;15.50;86.70
4960;DHT22;2495;48.200;11.532;2023-05-07T04:27:44;15.50;87.50
4960;DHT22;2495;48.200;11.532;2023-05-07T04:32:45;15.40;87.40
4960;DHT22;2495;48.200;11.532;2023-05-07T04:37:46;15.30;87.80
4960;DHT22;2495;48.200;11.532;2023-05-07T04:42:48;15.40;88.30
4960;DHT22;2495;48.200;11.532;2023-05-07T04:47:49;15.50;88.00
4960;DHT22;2495;48.200;11.532;2023-05-07T04:52:51;15.70;87.90
4960;DHT22;2495;48.200;11.532;2023-05-07T04:57:52;15.90;87.20
4960;DHT22;2495;48.200;11.532;2023-05-07T05:02:54;15.90;87.10
4960;DHT22;2495;48.200;11.532;2023-05-07T05:07:55;15.90;87.50
4960;DHT22;2495;48.200;11.532;2023-05-07T05:12:57;16.00;87.30
4960;DHT22;2495;48.200;11.532;2023-05-07T05:17:58;16.20;87.20
4960;DHT22;2495;48.200;11.532;2023-05-07T05:23:00;16.30;86.80
4960;DHT22;2495;48.200;11.532;2023-05-07T05:28:01;16.70;88.80
4960;DHT22;2495;48.200;11.532;2023-05-07T05:33:03;16.80;87.70
4960;DHT22;2495;48.200;11.532;2023-05-07T05:38:04;16.90;86.70
4960;DHT22;2495;48.200;11.532;2023-05-07T05:43:05;16.90;86.60
4960;DHT22;2495;48.200;11.532;2023-05-07T05:48:07;17.10;86.30
4960;DHT22;2495;48.200;11.532;2023-05-07T05:53:08;17.30;86.00
4960;DHT22;2495;48.200;11.532;2023-05-07T05:58:10;17.40;85.10
4960;DHT22;2495;48.200;11.532;2023-05-07T06:03:12;17.50;85.40
4960;DHT22;2495;48.200;11.532;2023-05-07T06:08:13;17.60;84.80
4960;DHT22;2495;48.200;11.532;2023-05-07T06:13:15;17.80;84.70
4960;DHT22;2495;48.200;11.532;2023-05-07T06:18:16;18.00;84.40
4960;DHT22;2495;48.200;11.532;2023-05-07T06:23:18;18.20;84.00
4960;DHT22;2495;48.200;11.532;2023-05-07T06:28:19;18.40;83.70
4960;DHT22;2495;48.200;11.532;2023-05-07T06:33:21;18.60;82.80
4960;DHT22;2495;48.200;11.532;2023-05-07T06:38:22;18.90;83.80
4960;DHT22;2495;48.200;11.532;2023-05-07T06:43:23;19.20;82.20
4960;DHT22;2495;48.200;11.532;2023-05-07T06:48:25;19.40;80.20
4960;DHT22;2495;48.200;11.532;2023-05-07T06:53:26;19.50;79.10
4960;DHT22;2495;48.200;11.532;2023-05-07T06:58:28;19.70;78.50
4960;DHT22;2495;48.200;11.532;2023-05-07T07:03:30;19.80;78.40
4960;DHT22;2495;48.200;11.532;2023-05-07T07:08:31;19.90;77.40
4960;DHT22;2495;48.200;11.532;2023-05-07T07:13:32;20.10;76.50
4960;DHT22;2495;48.200;11.532;2023-05-07T07:18:34;20.40;75.80
4960;DHT22;2495;48.200;11.532;2023-05-07T07:23:35;20.60;73.70
4960;DHT22;2495;48.200;11.532;2023-05-07T07:28:43;21.50;72.80
4960;DHT22;2495;48.200;11.532;2023-05-07T07:33:47;22.20;70.60
4960;DHT22;2495;48.200;11.532;2023-05-07T07:38:49;22.60;68.00
4960;DHT22;2495;48.200;11.532;2023-05-07T07:43:50;23.00;69.10
4960;DHT22;2495;48.200;11.532;2023-05-07T07:48:52;23.60;65.80
4960;DHT22;2495;48.200;11.532;2023-05-07T07:53:53;24.00;63.20
4960;DHT22;2495;48.200;11.532;2023-05-07T07:58:55;24.70;64.30
4960;DHT22;2495;48.200;11.532;2023-05-07T08:03:56;25.20;60.50
4960;DHT22;2495;48.200;11.532;2023-05-07T08:08:58;25.50;58.60
4960;DHT22;2495;48.200;11.532;2023-05-07T08:13:59;25.90;57.30
4960;DHT22;2495;48.200;11.532;2023-05-07T08:19:01;26.30;57.20
4960;DHT22;2495;48.200;11.532;2023-05-07T08:24:02;26.50;56.20
4960;DHT22;2495;48.200;11.532;2023-05-07T08:29:04;26.80;54.60
4960;DHT22;2495;48.200;11.532;2023-05-07T08:34:05;27.00;54.50
4960;DHT22;2495;48.200;11.532;2023-05-07T08:39:07;27.10;54.60
4960;DHT22;2495;48.200;11.532;2023-05-07T08:44:11;27.70;55.20
4960;DHT22;2495;48.200;11.532;2023-05-07T08:49:09;28.10;52.40
4960;DHT22;2495;48.200;11.532;2023-05-07T08:54:11;28.00;51.90
4960;DHT22;2495;48.200;11.532;2023-05-07T08:59:13;28.20;50.30
4960;DHT22;2495;48.200;11.532;2023-05-07T09:04:14;28.50;49.70
4960;DHT22;2495;48.200;11.532;2023-05-07T09:09:16;28.50;51.00
4960;DHT22;2495;48.200;11.532;2023-05-07T09:14:17;29.10;48.60
4960;DHT22;2495;48.200;11.532;2023-05-07T09:19:25;29.60;47.60
4960;DHT22;2495;48.200;11.532;2023-05-07T09:24:26;29.70;46.70
4960;DHT22;2495;48.200;11.532;2023-05-07T09:29:27;29.70;45.90
4960;DHT22;2495;48.200;11.532;2023-05-07T09:34:39;30.10;46.20
4960;DHT22;2495;48.200;11.532;2023-05-07T09:39:41;30.20;44.50
4960;DHT22;2495;48.200;11.532;2023-05-07T09:44:43;29.90;44.20
4960;DHT22;2495;48.200;11.532;2023-05-07T09:49:49;30.10;45.10
4960;DHT22;2495;48.200;11.532;2023-05-07T09:54:50;29.90;45.30
4960;DHT22;2495;48.200;11.532;2023-05-07T09:59:52;30.10;44.20
4960;DHT22;2495;48.200;11.532;2023-05-07T10:04:53;30.00;43.60
4960;DHT22;2495;48.200;11.532;2023-05-07T10:09:55;29.90;43.30
4960;DHT22;2495;48.200;11.532;2023-05-07T10:14:57;29.80;43.50
4960;DHT22;2495;48.200;11.532;2023-05-07T10:20:02;30.00;44.90
4960;DHT22;2495;48.200;11.532;2023-05-07T10:25:35;30.10;42.00
4960;DHT22;2495;48.200;11.532;2023-05-07T10:35:58;30.10;44.70
4960;DHT22;2495;48.200;11.532;2023-05-07T10:40:59;30.40;40.80
4960;DHT22;2495;48.200;11.532;2023-05-07T10:46:20;30.30;41.60
4960;DHT22;2495;48.200;11.532;2023-05-07T10:51:23;30.40;42.90
4960;DHT22;2495;48.200;11.532;2023-05-07T10:56:43;28.20;47.60
4960;DHT22;2495;48.200;11.532;2023-05-07T11:01:58;27.20;49.30
4960;DHT22;2495;48.200;11.532;2023-05-07T11:12:12;26.60;50.00
4960;DHT22;2495;48.200;11.532;2023-05-07T11:17:13;26.30;49.00
4960;DHT22;2495;48.200;11.532;2023-05-07T11:27:37;26.90;48.40
4960;DHT22;2495;48.200;11.532;2023-05-07T11:32:41;27.20;47.80
4960;DHT22;2495;48.200;11.532;2023-05-07T11:37:48;27.40;48.20
4960;DHT22;2495;48.200;11.532;2023-05-07T11:42:50;27.70;46.30
4960;DHT22;2495;48.200;11.532;2023-05-07T11:47:57;27.40;46.40
4960;DHT22;2495;48.200;11.532;2023-05-07T11:53:24;27.50;45.90
4960;DHT22;2495;48.200;11.532;2023-05-07T11:58:36;27.50;46.00
4960;DHT22;2495;48.200;11.532;2023-05-07T12:09:35;27.20;47.20
4960;DHT22;2495;48.200;11.532;2023-05-07T12:14:58;27.20;45.20
4960;DHT22;2495;48.200;11.532;2023-05-07T12:19:59;27.20;45.40
4960;DHT22;2495;48.200;11.532;2023-05-07T12:25:01;27.20;44.70
4960;DHT22;2495;48.200;11.532;2023-05-07T12:30:08;27.30;47.90
4960;DHT22;2495;48.200;11.532;2023-05-07T12:35:09;27.50;44.40
4960;DHT22;2495;48.200;11.532;2023-05-07T12:40:12;27.30;42.90
4960;DHT22;2495;48.200;11.532;2023-05-07T12:45:18;27.00;43.60
4960;DHT22;2495;48.200;11.532;2023-05-07T12:50:20;27.00;44.70
4960;DHT22;2495;48.200;11.532;2023-05-07T12:55:31;27.00;43.70
4960;DHT22;2495;48.200;11.532;2023-05-07T13:00:34;27.00;42.80
4960;DHT22;2495;48.200;11.532;2023-05-07T14:25:34;25.60;49.60
4960;DHT22;2495;48.200;11.532;2023-05-07T14:30:36;25.40;49.30
4960;DHT22;2495;48.200;11.532;2023-05-07T14:35:37;25.10;51.60
4960;DHT22;2495;48.200;11.532;2023-05-07T14:40:38;25.30;49.80
4960;DHT22;2495;48.200;11.532;2023-05-07T14:45:40;25.20;51.40
4960;DHT22;2495;48.200;11.532;2023-05-07T14:50:42;25.20;52.20
4960;DHT22;2495;48.200;11.532;2023-05-07T14:55:43;25.50;52.90
4960;DHT22;2495;48.200;11.532;2023-05-07T15:00:45;25.50;49.80
4960;DHT22;2495;48.200;11.532;2023-05-07T15:05:47;25.10;49.10
4960;DHT22;2495;48.200;11.532;2023-05-07T15:10:48;24.90;49.40
4960;DHT22;2495;48.200;11.532;2023-05-07T15:15:50;24.80;52.60
4960;DHT22;2495;48.200;11.532;2023-05-07T15:20:51;24.80;49.50
4960;DHT22;2495;48.200;11.532;2023-05-07T15:25:53;24.60;49.40
4960;DHT22;2495;48.200;11.532;2023-05-07T15:30:54;24.50;49.40
4960;DHT22;2495;48.200;11.532;2023-05-07T15:35:55;24.30;49.70
4960;DHT22;2495;48.200;11.532;2023-05-07T15:40:56;24.20;52.30
4960;DHT22;2495;48.200;11.532;2023-05-07T15:45:58;24.40;53.20
4960;DHT22;2495;48.200;11.532;2023-05-07T15:50:59;24.50;52.70
4960;DHT22;2495;48.200;11.532;2023-05-07T15:56:01;24.40;50.30
4960;DHT22;2495;48.200;11.532;2023-05-07T16:01:02;24.20;51.50
4960;DHT22;2495;48.200;11.532;2023-05-07T16:06:04;24.10;49.70
4960;DHT22;2495;48.200;11.532;2023-05-07T16:11:05;23.90;49.60
4960;DHT22;2495;48.200;11.532;2023-05-07T16:16:06;23.80;53.10
4960;DHT22;2495;48.200;11.532;2023-05-07T16:21:07;24.00;50.50
4960;DHT22;2495;48.200;11.532;2023-05-07T16:26:09;23.80;52.20
4960;DHT22;2495;48.200;11.532;2023-05-07T16:31:10;23.80;50.30
4960;DHT22;2495;48.200;11.532;2023-05-07T16:36:12;23.60;50.20
4960;DHT22;2495;48.200;11.532;2023-05-07T16:41:13;23.60;53.40
4960;DHT22;2495;48.200;11.532;2023-05-07T16:46:14;23.60;51.20
4960;DHT22;2495;48.200;11.532;2023-05-07T16:51:16;23.50;51.20
4960;DHT22;2495;48.200;11.532;2023-05-07T16:56:18;23.30;51.70
4960;DHT22;2495;48.200;11.532;2023-05-07T17:01:20;23.30;54.70
4960;DHT22;2495;48.200;11.532;2023-05-07T17:06:21;23.30;52.20
4960;DHT22;2495;48.200;11.532;2023-05-07T17:11:22;23.20;55.20
4960;DHT22;2495;48.200;11.532;2023-05-07T17:16:24;23.30;53.70
4960;DHT22;2495;48.200;11.532;2023-05-07T17:21:25;23.20;53.40
4960;DHT22;2495;48.200;11.532;2023-05-07T17:26:26;23.10;53.60
4960;DHT22;2495;48.200;11.532;2023-05-07T17:31:28;22.90;54.00
4960;DHT22;2495;48.200;11.532;2023-05-07T17:36:29;22.80;54.30
4960;DHT22;2495;48.200;11.532;2023-05-07T17:41:30;22.70;57.20
4960;DHT22;2495;48.200;11.532;2023-05-07T17:46:32;22.70;55.40
4960;DHT22;2495;48.200;11.532;2023-05-07T17:51:33;22.60;55.20
4960;DHT22;2495;48.200;11.532;2023-05-07T17:56:36;22.50;55.00
4960;DHT22;2495;48.200;11.532;2023-05-07T18:01:36;22.30;54.90
4960;DHT22;2495;48.200;11.532;2023-05-07T18:06:37;22.20;55.20
4960;DHT22;2495;48.200;11.532;2023-05-07T18:11:38;22.20;58.10
4960;DHT22;2495;48.200;11.532;2023-05-07T18:16:40;22.30;56.20
4960;DHT22;2495;48.200;11.532;2023-05-07T18:21:41;22.20;55.80
4960;DHT22;2495;48.200;11.532;2023-05-07T18:26:42;22.10;55.50
4960;DHT22;2495;48.200;11.532;2023-05-07T18:31:44;22.00;56.00
4960;DHT22;2495;48.200;11.532;2023-05-07T18:36:45;21.90;56.20
4960;DHT22;2495;48.200;11.532;2023-05-07T18:41:49;21.90;59.40
4960;DHT22;2495;48.200;11.532;2023-05-07T18:46:50;22.10;57.70
4960;DHT22;2495;48.200;11.532;2023-05-07T18:51:51;22.00;56.80
4960;DHT22;2495;48.200;11.532;2023-05-07T18:56:53;22.00;59.30
4960;DHT22;2495;48.200;11.532;2023-05-07T19:01:54;22.10;60.50
4960;DHT22;2495;48.200;11.532;2023-05-07T19:06:56;22.10;58.80
4960;DHT22;2495;48.200;11.532;2023-05-07T19:11:57;22.00;58.70
4960;DHT22;2495;48.200;11.532;2023-05-07T19:16:58;21.80;59.00
4960;DHT22;2495;48.200;11.532;2023-05-07T19:22:00;21.70;59.50
4960;DHT22;2495;48.200;11.532;2023-05-07T19:27:01;21.50;60.20
4960;DHT22;2495;48.200;11.532;2023-05-07T19:32:02;21.50;60.90
4960;DHT22;2495;48.200;11.532;2023-05-07T19:37:04;21.30;62.50
4960;DHT22;2495;48.200;11.532;2023-05-07T19:42:06;21.20;63.20
4960;DHT22;2495;48.200;11.532;2023-05-07T19:47:08;21.10;64.20
4960;DHT22;2495;48.200;11.532;2023-05-07T19:52:09;21.10;67.80
4960;DHT22;2495;48.200;11.532;2023-05-07T19:57:11;21.30;68.90
4960;DHT22;2495;48.200;11.532;2023-05-07T20:02:13;21.40;69.80
4960;DHT22;2495;48.200;11.532;2023-05-07T20:07:14;21.40;70.30
4960;DHT22;2495;48.200;11.532;2023-05-07T20:12:16;21.40;71.20
4960;DHT22;2495;48.200;11.532;2023-05-07T20:17:18;21.30;69.10
4960;DHT22;2495;48.200;11.532;2023-05-07T20:22:20;21.10;69.00
4960;DHT22;2495;48.200;11.532;2023-05-07T20:27:22;20.90;69.10
4960;DHT22;2495;48.200;11.532;2023-05-07T20:32:24;20.70;71.90
4960;DHT22;2495;48.200;11.532;2023-05-07T20:37:25;20.80;70.40
4960;DHT22;2495;48.200;11.532;2023-05-07T20:42:27;20.70;69.70
4960;DHT22;2495;48.200;11.532;2023-05-07T20:47:30;20.50;69.80
4960;DHT22;2495;48.200;11.532;2023-05-07T20:52:30;20.40;70.30
4960;DHT22;2495;48.200;11.532;2023-05-07T20:57:32;20.30;70.70
4960;DHT22;2495;48.200;11.532;2023-05-07T21:02:33;20.10;71.00
4960;DHT22;2495;48.200;11.532;2023-05-07T21:07:34;20.10;71.30
4960;DHT22;2495;48.200;11.532;2023-05-07T21:12:36;20.00;71.70
4960;DHT22;2495;48.200;11.532;2023-05-07T21:17:37;19.90;71.60
4960;DHT22;2495;48.200;11.532;2023-05-07T21:22:39;19.90;73.70
4960;DHT22;2495;48.200;11.532;2023-05-07T21:27:40;20.00;72.50
4960;DHT22;2495;48.200;11.532;2023-05-07T21:32:41;19.90;72.10
4960;DHT22;2495;48.200;11.532;2023-05-07T21:37:43;19.80;72.40
4960;DHT22;2495;48.200;11.532;2023-05-07T21:42:44;19.60;72.60
4960;DHT22;2495;48.200;11.532;2023-05-07T21:47:45;19.60;72.70
4960;DHT22;2495;48.200;11.532;2023-05-07T21:52:47;19.60;72.90
4960;DHT22;2495;48.200;11.532;2023-05-07T21:57:48;19.50;73.20
4960;DHT22;2495;48.200;11.532;2023-05-07T22:02:49;19.50;73.20
4960;DHT22;2495;48.200;11.532;2023-05-07T22:07:51;19.50;75.60
4960;DHT22;2495;48.200;11.532;2023-05-07T22:12:52;19.60;74.10
4960;DHT22;2495;48.200;11.532;2023-05-07T22:17:54;19.50;73.50
4960;DHT22;2495;48.200;11.532;2023-05-07T22:22:56;19.50;75.50
4960;DHT22;2495;48.200;11.532;2023-05-07T22:27:58;19.70;75.40
4960;DHT22;2495;48.200;11.532;2023-05-07T22:32:59;19.70;73.40
4960;DHT22;2495;48.200;11.532;2023-05-07T22:38:00;19.60;74.90
4960;DHT22;2495;48.200;11.532;2023-05-07T22:43:02;19.60;72.80
4960;DHT22;2495;48.200;11.532;2023-05-07T22:48:03;19.60;74.80
4960;DHT22;2495;48.200;11.532;2023-05-07T22:53:05;19.60;73.20
4960;DHT22;2495;48.200;11.532;2023-05-07T22:58:06;19.50;72.70
4960;DHT22;2495;48.200;11.532;2023-05-07T23:03:08;19.40;72.70
4960;DHT22;2495;48.200;11.532;2023-05-07T23:08:09;19.30;72.60
4960;DHT22;2495;48.200;11.532;2023-05-07T23:13:11;19.20;72.70
4960;DHT22;2495;48.200;11.532;2023-05-07T23:18:12;19.10;72.80
4960;DHT22;2495;48.200;11.532;2023-05-07T23:23:14;19.10;74.70
4960;DHT22;2495;48.200;11.532;2023-05-07T23:28:15;19.30;74.40
4960;DHT22;2495;48.200;11.532;2023-05-07T23:33:16;19.30;72.80
4960;DHT22;2495;48.200;11.532;2023-05-07T23:38:18;19.10;72.70
4960;DHT22;2495;48.200;11.532;2023-05-07T23:43:19;19.00;72.80
4960;DHT22;2495;48.200;11.532;2023-05-07T23:48:20;18.90;72.70
4960;DHT22;2495;48.200;11.532;2023-05-07T23:53:21;18.80;72.70
4960;DHT22;2495;48.200;11.532;2023-05-07T23:58:23;18.70;72.70
